createdAt,value
2022-08-22T00:00:22.446Z,74.71
2022-08-22T00:02:42.423Z,64.55
2022-08-22T00:02:43.553Z,69.10
2022-08-22T00:02:58.277Z,64.76
2022-08-22T00:03:04.983Z,69.96
2022-08-22T00:03:07.364Z,73.02
2022-08-22T00:03:12.823Z,72.56
2022-08-22T00:06:05.918Z,74.64
2022-08-22T00:08:47.201Z,74.53
2022-08-22T00:11:25.662Z,75.06
2022-08-22T00:14:04.117Z,75.35
2022-08-22T00:16:45.913Z,75.80
2022-08-22T00:19:37.415Z,75.68
2022-08-22T00:22:24.422Z,76.06
2022-08-22T00:25:15.007Z,76.29
2022-08-22T00:28:06.113Z,76.57
2022-08-22T00:31:01.073Z,77.01
2022-08-22T00:33:41.658Z,77.27
2022-08-22T00:36:16.360Z,77.52
2022-08-22T00:38:52.288Z,77.79
2022-08-22T00:41:41.622Z,77.96
2022-08-22T00:44:35.614Z,78.09
2022-08-22T00:47:40.036Z,78.20
2022-08-22T00:50:37.677Z,78.49
2022-08-22T00:53:38.016Z,78.66
2022-08-22T00:56:11.138Z,78.94
2022-08-22T00:59:17.985Z,79.23
2022-08-22T01:02:18.109Z,79.37
2022-08-22T01:05:07.697Z,79.64
2022-08-22T01:08:14.243Z,79.96
2022-08-22T01:11:05.308Z,80.30
2022-08-22T01:13:52.787Z,80.66
2022-08-22T01:16:35.101Z,80.92
2022-08-22T01:19:21.174Z,81.43
2022-08-22T01:22:32.673Z,81.68
2022-08-22T01:25:25.993Z,81.93
2022-08-22T01:28:17.300Z,82.05
2022-08-22T01:31:24.382Z,82.14
2022-08-22T01:34:06.375Z,82.20
2022-08-22T01:36:54.836Z,82.04
2022-08-22T01:39:33.557Z,82.15
2022-08-22T01:42:31.408Z,82.00
2022-08-22T01:44:58.176Z,81.97
2022-08-22T01:47:45.182Z,81.95
2022-08-22T01:50:30.075Z,81.86
2022-08-22T01:53:06.506Z,82.08
2022-08-22T01:55:46.155Z,82.01
2022-08-22T01:58:26.974Z,82.26
2022-08-22T02:01:17.783Z,82.16
2022-08-22T02:04:14.406Z,82.08
2022-08-22T02:06:58.499Z,82.06
2022-08-22T02:09:38.658Z,81.96
2022-08-22T02:12:36.100Z,81.99
2022-08-22T02:15:26.465Z,81.93
2022-08-22T02:18:02.798Z,82.06
2022-08-22T02:20:47.436Z,82.03
2022-08-22T02:23:50.633Z,82.19
2022-08-22T02:26:26.097Z,82.05
2022-08-22T02:29:42.479Z,82.12
2022-08-22T02:32:09.508Z,82.22
2022-08-22T02:34:44.639Z,81.95
2022-08-22T02:37:17.364Z,82.03
2022-08-22T02:40:06.922Z,81.91
2022-08-22T02:42:38.199Z,82.03
2022-08-22T02:45:15.639Z,82.09
2022-08-22T02:48:02.079Z,81.80
2022-08-22T02:50:53.102Z,81.89
2022-08-22T02:53:23.001Z,81.74
2022-08-22T02:56:04.798Z,81.64
2022-08-22T02:58:39.457Z,81.87
2022-08-22T03:01:15.005Z,81.64
2022-08-22T03:03:46.351Z,81.62
2022-08-22T03:06:34.652Z,81.65
2022-08-22T03:09:14.065Z,81.81
2022-08-22T03:11:46.654Z,81.77
2022-08-22T03:14:25.621Z,81.71
2022-08-22T03:16:58.437Z,81.89
2022-08-22T03:19:49.407Z,81.95
2022-08-22T03:22:30.022Z,81.88
2022-08-22T03:25:13.062Z,81.89
2022-08-22T03:28:00.356Z,81.77
2022-08-22T03:30:45.906Z,81.76
2022-08-22T03:33:31.379Z,82.05
2022-08-22T03:36:09.390Z,81.97
2022-08-22T03:38:36.234Z,82.17
2022-08-22T03:41:15.204Z,82.17
2022-08-22T03:44:32.964Z,82.19
2022-08-22T03:47:28.208Z,82.09
2022-08-22T03:50:18.864Z,82.18
2022-08-22T03:53:18.557Z,82.27
2022-08-22T03:56:13.910Z,82.32
2022-08-22T03:58:41.162Z,82.33
2022-08-22T04:01:20.100Z,82.38
2022-08-22T04:04:18.919Z,82.80
2022-08-22T04:07:03.429Z,83.25
2022-08-22T04:09:52.933Z,83.37
2022-08-22T04:12:31.530Z,83.44
2022-08-22T04:15:40.472Z,83.83
2022-08-22T04:18:34.358Z,83.89
2022-08-22T04:21:23.234Z,84.14
2022-08-22T04:24:05.389Z,84.42
2022-08-22T04:27:00.734Z,84.24
2022-08-22T04:29:45.437Z,84.03
2022-08-22T04:32:43.436Z,83.97
2022-08-22T04:35:31.330Z,84.05
2022-08-22T04:38:09.902Z,84.02
2022-08-22T04:40:48.049Z,84.15
2022-08-22T04:43:19.830Z,83.96
2022-08-22T04:45:53.024Z,83.60
2022-08-22T04:48:29.116Z,83.29
2022-08-22T04:51:05.158Z,83.38
2022-08-22T04:53:41.937Z,83.14
2022-08-22T04:56:38.062Z,82.84
2022-08-22T04:59:12.228Z,82.78
2022-08-22T05:01:54.386Z,82.38
2022-08-22T05:04:32.141Z,82.11
2022-08-22T05:07:07.749Z,81.56
2022-08-22T05:09:38.865Z,81.43
2022-08-22T05:12:12.067Z,80.87
2022-08-22T05:14:54.394Z,80.61
2022-08-22T05:17:27.485Z,79.90
2022-08-22T05:19:58.738Z,79.49
2022-08-22T05:22:35.239Z,79.28
2022-08-22T05:25:09.574Z,79.37
2022-08-22T05:27:43.433Z,79.35
2022-08-22T05:30:16.398Z,79.12
2022-08-22T05:33:08.213Z,78.30
2022-08-22T05:35:48.614Z,77.68
2022-08-22T05:38:20.911Z,77.37
2022-08-22T05:40:52.683Z,77.61
2022-08-22T05:43:21.236Z,77.46
2022-08-22T05:45:49.150Z,77.45
2022-08-22T05:48:25.605Z,76.54
2022-08-22T05:50:56.761Z,76.24
2022-08-22T05:53:31.819Z,76.04
2022-08-22T05:56:12.386Z,74.47
2022-08-22T05:58:39.788Z,74.69
2022-08-22T06:01:21.314Z,74.43
2022-08-22T06:04:01.322Z,74.73
2022-08-22T06:06:32.029Z,74.87
2022-08-22T06:09:11.662Z,74.41
2022-08-22T06:11:51.699Z,73.92
2022-08-22T06:14:33.740Z,74.38
2022-08-22T06:17:10.492Z,73.84
2022-08-22T06:19:42.165Z,73.74
2022-08-22T06:22:09.466Z,72.91
2022-08-22T06:24:41.276Z,72.57
2022-08-22T06:27:13.146Z,72.61
2022-08-22T06:29:45.667Z,72.07
2022-08-22T06:32:30.717Z,71.48
2022-08-22T06:35:17.538Z,70.84
2022-08-22T06:37:47.853Z,70.28
2022-08-22T06:40:17.746Z,70.44
2022-08-22T06:42:50.488Z,70.01
2022-08-22T06:45:24.740Z,69.99
2022-08-22T06:48:13.608Z,69.55
2022-08-22T06:50:43.781Z,69.62
2022-08-22T06:53:18.547Z,69.86
2022-08-22T06:55:54.797Z,69.83
2022-08-22T06:58:25.680Z,69.75
2022-08-22T07:01:11.049Z,69.68
2022-08-22T07:03:45.142Z,69.48
2022-08-22T07:06:17.997Z,69.33
2022-08-22T07:08:45.810Z,68.83
2022-08-22T07:11:52.506Z,68.09
2022-08-22T07:14:28.666Z,67.03
2022-08-22T07:17:04.759Z,67.39
2022-08-22T07:19:45.755Z,66.01
2022-08-22T07:22:21.906Z,65.84
2022-08-22T07:24:55.826Z,66.29
2022-08-22T07:27:41.134Z,65.28
2022-08-22T07:30:12.891Z,64.98
2022-08-22T07:32:50.250Z,64.74
2022-08-22T07:35:28.936Z,64.95
2022-08-22T07:38:25.342Z,64.69
2022-08-22T07:41:03.349Z,64.91
2022-08-22T07:43:36.304Z,64.73
2022-08-22T07:46:14.397Z,64.76
2022-08-22T07:49:08.075Z,65.00
2022-08-22T07:51:49.761Z,64.88
2022-08-22T07:54:27.783Z,64.43
2022-08-22T07:57:03.284Z,64.51
2022-08-22T07:59:33.300Z,64.13
2022-08-22T08:02:04.918Z,63.38
2022-08-22T08:04:39.477Z,63.59
2022-08-22T08:07:11.449Z,63.76
2022-08-22T08:10:11.094Z,63.11
2022-08-22T08:13:02.282Z,63.42
2022-08-22T08:15:32.968Z,63.54
2022-08-22T08:18:05.610Z,63.56
2022-08-22T08:20:35.137Z,62.59
2022-08-22T08:23:11.986Z,62.04
2022-08-22T08:25:57.601Z,62.23
2022-08-22T08:28:34.268Z,60.95
2022-08-22T08:31:11.152Z,61.05
2022-08-22T08:33:42.491Z,61.02
2022-08-22T08:36:33.908Z,59.88
2022-08-22T08:39:39.308Z,60.28
2022-08-22T08:42:27.392Z,59.99
2022-08-22T08:45:12.610Z,60.42
2022-08-22T08:48:04.178Z,60.32
2022-08-22T08:51:02.162Z,59.57
2022-08-22T08:53:43.753Z,58.83
2022-08-22T08:56:44.938Z,58.73
2022-08-22T08:59:32.675Z,57.87
2022-08-22T09:02:36.781Z,57.79
2022-08-22T09:05:10.590Z,57.19
2022-08-22T09:08:00.120Z,57.05
2022-08-22T09:11:09.965Z,57.46
2022-08-22T09:14:03.830Z,57.67
2022-08-22T09:16:51.900Z,57.74
2022-08-22T09:19:46.913Z,57.46
2022-08-22T09:22:17.803Z,56.90
2022-08-22T09:28:00.167Z,56.97
2022-08-22T09:30:57.610Z,57.17
2022-08-22T09:33:51.824Z,57.35
2022-08-22T09:36:26.877Z,57.16
2022-08-22T09:39:03.051Z,57.07
2022-08-22T09:41:44.972Z,57.17
2022-08-22T09:44:15.450Z,57.53
2022-08-22T09:47:24.728Z,57.88
2022-08-22T09:49:57.413Z,57.74
2022-08-22T09:52:50.129Z,57.85
2022-08-22T09:55:36.273Z,58.08
2022-08-22T09:58:27.938Z,58.56
2022-08-22T10:00:59.847Z,58.38
2022-08-22T10:03:45.791Z,57.70
2022-08-22T10:06:21.843Z,57.77
2022-08-22T10:09:05.201Z,57.99
2022-08-22T10:11:49.734Z,57.80
2022-08-22T10:14:26.997Z,56.86
2022-08-22T10:17:21.734Z,56.76
2022-08-22T10:20:03.293Z,56.30
2022-08-22T10:22:39.421Z,56.64
2022-08-22T10:25:28.474Z,55.92
2022-08-22T10:28:20.235Z,56.00
2022-08-22T10:31:10.452Z,55.75
2022-08-22T10:33:46.507Z,55.81
2022-08-22T10:36:20.929Z,55.64
2022-08-22T10:38:54.726Z,55.81
2022-08-22T10:41:27.782Z,54.96
2022-08-22T10:44:19.599Z,54.75
2022-08-22T10:46:57.687Z,55.33
2022-08-22T10:49:33.252Z,54.64
2022-08-22T10:52:15.810Z,55.47
2022-08-22T10:54:49.890Z,55.13
2022-08-22T10:57:36.400Z,54.22
2022-08-22T11:00:29.227Z,54.89
2022-08-22T11:03:23.518Z,54.95
2022-08-22T11:06:00.280Z,54.46
2022-08-22T11:08:39.586Z,54.40
2022-08-22T11:11:19.479Z,54.22
2022-08-22T11:13:46.489Z,54.77
2022-08-22T11:16:36.532Z,54.57
2022-08-22T11:19:17.812Z,53.08
2022-08-22T11:22:04.731Z,52.21
2022-08-22T11:24:35.345Z,52.62
2022-08-22T11:27:38.146Z,51.95
2022-08-22T11:30:10.846Z,50.65
2022-08-22T11:32:50.697Z,50.59
2022-08-22T11:35:37.144Z,50.10
2022-08-22T11:38:19.695Z,49.92
2022-08-22T11:41:29.910Z,49.85
2022-08-22T11:44:06.258Z,50.54
2022-08-22T11:46:39.977Z,50.62
2022-08-22T11:49:44.763Z,50.84
2022-08-22T11:52:37.201Z,50.37
2022-08-22T11:55:43.491Z,50.36
2022-08-22T11:58:32.209Z,50.60
2022-08-22T12:01:17.266Z,50.85
2022-08-22T12:03:58.134Z,50.88
2022-08-22T12:06:35.123Z,51.37
2022-08-22T12:09:10.114Z,51.51
2022-08-22T12:11:48.572Z,50.65
2022-08-22T12:14:26.852Z,51.14
2022-08-22T12:17:55.895Z,50.99
2022-08-22T12:20:55.233Z,50.13
2022-08-22T12:23:50.601Z,50.97
2022-08-22T12:26:42.047Z,50.72
2022-08-22T12:29:45.433Z,51.58
2022-08-22T12:32:34.251Z,51.46
2022-08-22T12:35:30.763Z,51.30
2022-08-22T12:38:28.166Z,50.94
2022-08-22T12:41:34.977Z,50.56
2022-08-22T12:44:24.105Z,50.95
2022-08-22T12:47:04.412Z,50.68
2022-08-22T12:49:56.554Z,50.58
2022-08-22T12:52:38.717Z,50.65
2022-08-22T12:55:05.676Z,51.13
2022-08-22T12:57:54.061Z,51.06
2022-08-22T13:00:35.783Z,51.31
2022-08-22T13:03:34.562Z,50.94
2022-08-22T13:06:35.841Z,50.90
2022-08-22T13:09:18.725Z,50.99
2022-08-22T13:11:49.602Z,50.62
2022-08-22T13:14:25.620Z,51.21
2022-08-22T13:17:15.237Z,50.85
2022-08-22T13:20:00.649Z,51.01
2022-08-22T13:22:32.986Z,51.04
2022-08-22T13:25:08.646Z,51.35
2022-08-22T13:27:50.712Z,51.39
2022-08-22T13:30:23.176Z,50.85
2022-08-22T13:32:55.806Z,50.47
2022-08-22T13:35:35.340Z,50.33
2022-08-22T13:38:13.671Z,50.02
2022-08-22T13:40:47.326Z,49.94
2022-08-22T13:43:21.344Z,50.02
2022-08-22T13:45:55.951Z,49.33
2022-08-22T13:48:28.516Z,50.13
2022-08-22T13:51:19.635Z,50.10
2022-08-22T13:54:00.853Z,50.16
2022-08-22T13:56:39.226Z,50.10
2022-08-22T13:59:50.227Z,50.08
2022-08-22T14:02:38.106Z,50.28
2022-08-22T14:05:25.239Z,50.33
2022-08-22T14:08:13.061Z,49.85
2022-08-22T14:10:47.816Z,49.53
2022-08-22T14:13:47.119Z,50.20
2022-08-22T14:16:32.704Z,50.11
2022-08-22T14:19:10.568Z,50.16
2022-08-22T14:21:51.997Z,50.13
2022-08-22T14:24:33.111Z,50.55
2022-08-22T14:27:16.032Z,50.88
2022-08-22T14:29:56.958Z,51.21
2022-08-22T14:32:28.558Z,51.00
2022-08-22T14:35:10.703Z,51.33
2022-08-22T14:37:54.230Z,51.73
2022-08-22T14:40:36.385Z,51.65
2022-08-22T14:43:09.102Z,51.77
2022-08-22T14:45:40.672Z,51.44
2022-08-22T14:48:29.931Z,51.67
2022-08-22T14:51:04.168Z,51.27
2022-08-22T14:53:35.073Z,51.32
2022-08-22T14:56:08.287Z,51.79
2022-08-22T14:58:52.404Z,51.91
2022-08-22T15:01:22.646Z,51.87
2022-08-22T15:04:07.973Z,52.01
2022-08-22T15:06:47.760Z,51.73
2022-08-22T15:09:42.990Z,52.51
2022-08-22T15:12:32.996Z,52.06
2022-08-22T15:15:03.482Z,52.14
2022-08-22T15:17:35.740Z,52.58
2022-08-22T15:20:11.123Z,52.69
2022-08-22T15:22:41.027Z,52.31
2022-08-22T15:25:17.594Z,52.45
2022-08-22T15:27:54.153Z,52.78
2022-08-22T15:30:44.384Z,52.61
2022-08-22T15:33:26.489Z,53.01
2022-08-22T15:36:10.844Z,53.33
2022-08-22T15:38:42.082Z,53.74
2022-08-22T15:41:36.771Z,53.84
2022-08-22T15:44:15.065Z,54.36
2022-08-22T15:47:11.569Z,54.18
2022-08-22T15:49:59.184Z,54.11
2022-08-22T15:52:59.803Z,53.89
2022-08-22T15:55:34.441Z,54.25
2022-08-22T15:58:07.618Z,53.99
2022-08-22T16:00:45.147Z,53.96
2022-08-22T16:03:26.522Z,54.39
2022-08-22T16:05:58.105Z,54.45
2022-08-22T16:08:37.196Z,54.42
2022-08-22T16:11:04.031Z,54.50
2022-08-22T16:13:31.375Z,54.64
2022-08-22T16:15:58.206Z,54.72
2022-08-22T16:18:34.612Z,54.93
2022-08-22T16:21:05.767Z,54.54
2022-08-22T16:23:54.189Z,54.56
2022-08-22T16:26:30.128Z,54.83
2022-08-22T16:29:17.883Z,54.58
2022-08-22T16:31:48.541Z,54.68
2022-08-22T16:34:18.325Z,54.50
2022-08-22T16:36:51.683Z,54.45
2022-08-22T16:39:21.796Z,54.76
2022-08-22T16:41:52.346Z,54.45
2022-08-22T16:44:38.458Z,54.39
2022-08-22T16:47:13.047Z,54.72
2022-08-22T16:49:49.329Z,54.91
2022-08-22T16:52:25.600Z,54.56
2022-08-22T16:55:03.914Z,54.23
2022-08-22T16:58:05.787Z,54.36
2022-08-22T17:00:36.109Z,54.18
2022-08-22T17:03:18.325Z,54.65
2022-08-22T17:05:56.867Z,54.56
2022-08-22T17:08:38.969Z,54.77
2022-08-22T17:11:25.975Z,54.65
2022-08-22T17:14:04.884Z,54.76
2022-08-22T17:16:37.164Z,54.99
2022-08-22T17:19:12.933Z,54.94
2022-08-22T17:22:24.948Z,55.24
2022-08-22T17:25:18.054Z,55.28
2022-08-22T17:27:52.668Z,55.56
2022-08-22T17:30:31.656Z,55.82
2022-08-22T17:33:15.803Z,55.96
2022-08-22T17:36:01.053Z,55.91
2022-08-22T17:39:10.223Z,56.23
2022-08-22T17:41:57.865Z,56.47
2022-08-22T17:44:49.987Z,56.58
2022-08-22T17:47:28.024Z,56.72
2022-08-22T17:50:05.205Z,57.01
2022-08-22T17:52:43.889Z,57.21
2022-08-22T17:55:37.037Z,57.27
2022-08-22T17:58:31.645Z,57.50
2022-08-22T18:01:11.451Z,57.71
2022-08-22T18:03:44.728Z,57.87
2022-08-22T18:06:21.350Z,57.77
2022-08-22T18:09:18.647Z,58.01
2022-08-22T18:11:54.515Z,58.41
2022-08-22T18:14:33.264Z,58.43
2022-08-22T18:17:01.141Z,58.86
2022-08-22T18:19:49.987Z,58.80
2022-08-22T18:22:23.344Z,59.03
2022-08-22T18:24:53.064Z,59.27
2022-08-22T18:27:34.872Z,59.64
2022-08-22T18:30:14.033Z,59.55
2022-08-22T18:32:47.139Z,59.61
2022-08-22T18:35:19.107Z,59.62
2022-08-22T18:38:19.144Z,59.74
2022-08-22T18:40:58.999Z,59.88
2022-08-22T18:43:36.682Z,60.01
2022-08-22T18:46:38.579Z,59.85
2022-08-22T18:49:20.898Z,59.93
2022-08-22T18:52:06.942Z,60.23
2022-08-22T18:54:44.382Z,60.51
2022-08-22T18:57:30.860Z,60.55
2022-08-22T19:00:16.724Z,60.50
2022-08-22T19:03:15.126Z,60.67
2022-08-22T19:06:25.799Z,60.99
2022-08-22T19:09:37.862Z,61.37
2022-08-22T19:12:41.846Z,61.58
2022-08-22T19:15:22.530Z,61.98
2022-08-22T19:18:18.312Z,62.26
2022-08-22T19:21:33.843Z,62.37
2022-08-22T19:24:02.235Z,62.51
2022-08-22T19:26:29.501Z,62.77
2022-08-22T19:29:10.126Z,62.85
2022-08-22T19:31:41.827Z,63.14
2022-08-22T19:34:29.439Z,63.35
2022-08-22T19:37:11.573Z,63.57
2022-08-22T19:40:01.851Z,63.87
2022-08-22T19:42:33.310Z,64.13
2022-08-22T19:45:06.779Z,64.31
2022-08-22T19:47:40.894Z,64.54
2022-08-22T19:50:16.777Z,64.61
2022-08-22T19:52:57.877Z,64.77
2022-08-22T19:55:33.732Z,64.90
2022-08-22T19:58:32.662Z,65.06
2022-08-22T20:00:59.985Z,65.42
2022-08-22T20:03:41.133Z,65.70
2022-08-22T20:06:45.484Z,65.82
2022-08-22T20:09:47.309Z,66.06
2022-08-22T20:12:31.707Z,66.25
2022-08-22T20:15:22.439Z,66.65
2022-08-22T20:20:56.721Z,66.97
2022-08-22T20:23:29.601Z,67.23
2022-08-22T20:25:57.780Z,67.34
2022-08-22T20:28:37.901Z,67.79
2022-08-22T20:31:12.748Z,67.96
2022-08-22T20:33:43.840Z,68.19
2022-08-22T20:36:28.507Z,68.36
2022-08-22T20:39:10.925Z,68.53
2022-08-22T20:41:43.529Z,68.88
2022-08-22T20:44:19.461Z,68.91
2022-08-22T20:46:53.802Z,69.21
2022-08-22T20:49:30.359Z,69.50
2022-08-22T20:52:20.562Z,69.78
2022-08-22T20:55:01.081Z,70.05
2022-08-22T20:57:29.101Z,70.30
2022-08-22T21:00:10.058Z,70.49
2022-08-22T21:03:00.335Z,70.73
2022-08-22T21:05:37.191Z,70.95
2022-08-22T21:08:09.613Z,71.26
2022-08-22T21:10:58.169Z,71.57
2022-08-22T21:13:29.887Z,71.74
2022-08-22T21:16:19.132Z,71.98
2022-08-22T21:18:49.530Z,72.17
2022-08-22T21:21:17.854Z,72.31
2022-08-22T21:24:01.161Z,72.53
2022-08-22T21:26:46.424Z,72.70
2022-08-22T21:29:13.279Z,72.94
2022-08-22T21:31:50.468Z,73.19
2022-08-22T21:34:24.470Z,73.53
2022-08-22T21:36:58.562Z,73.69
2022-08-22T21:39:30.692Z,73.95
2022-08-22T21:42:00.835Z,74.30
2022-08-22T21:44:30.738Z,74.56
2022-08-22T21:47:31.599Z,74.87
2022-08-22T21:50:26.994Z,75.22
2022-08-22T21:52:53.869Z,75.36
2022-08-22T21:55:34.572Z,75.51
2022-08-22T21:58:06.510Z,75.73
2022-08-22T22:00:52.156Z,76.04
2022-08-22T22:03:22.847Z,76.09
2022-08-22T22:05:51.521Z,76.49
2022-08-22T22:08:19.112Z,76.75
2022-08-22T22:10:47.716Z,76.79
2022-08-22T22:13:16.190Z,76.82
2022-08-22T22:15:46.847Z,77.11
2022-08-22T22:18:16.631Z,77.42
2022-08-22T22:20:44.861Z,77.32
2022-08-22T22:23:11.915Z,77.72
2022-08-22T22:25:42.214Z,77.84
2022-08-22T22:28:12.213Z,78.31
2022-08-22T22:30:39.856Z,78.46
2022-08-22T22:33:06.905Z,78.86
2022-08-22T22:35:34.249Z,78.78
2022-08-22T22:38:01.312Z,79.08
2022-08-22T22:40:28.340Z,79.45
2022-08-22T22:42:55.635Z,79.60
2022-08-22T22:45:22.530Z,79.76
2022-08-22T22:47:49.421Z,80.00
2022-08-22T22:50:16.768Z,80.25
2022-08-22T22:52:43.973Z,80.37
2022-08-22T22:55:11.424Z,80.56
2022-08-22T22:57:59.262Z,80.66
2022-08-22T23:00:34.297Z,81.14
2022-08-22T23:03:03.925Z,81.19
2022-08-22T23:05:32.306Z,81.25
2022-08-22T23:07:59.973Z,81.57
2022-08-22T23:10:28.489Z,81.70
2022-08-22T23:12:55.311Z,81.91
2022-08-22T23:15:22.484Z,82.03
2022-08-22T23:17:49.567Z,82.22
2022-08-22T23:20:16.447Z,82.50
2022-08-22T23:22:46.207Z,82.57
2022-08-22T23:25:14.004Z,82.75
2022-08-22T23:27:41.062Z,83.10
2022-08-22T23:30:09.219Z,83.17
2022-08-22T23:32:37.469Z,83.23
2022-08-22T23:35:05.950Z,83.49
2022-08-22T23:37:33.384Z,83.72
2022-08-22T23:40:01.041Z,83.66
2022-08-22T23:42:29.485Z,84.13
2022-08-22T23:44:56.742Z,84.15
2022-08-22T23:47:24.164Z,84.32
2022-08-22T23:49:51.011Z,84.45
2022-08-22T23:52:18.229Z,84.73
2022-08-22T23:54:45.502Z,85.02
2022-08-22T23:57:12.510Z,85.00
2022-08-22T23:59:47.926Z,84.99
